X  Chiuso Dati meteorologici dell'aviazione (METAR)     EDDM Munich Airport
Temperatura
2°C Temperatura
0°C Punto di rugiada
87% Umidità



Vento
1 M/S
3 MPH
5 KM/O
3 KTS



140°
SE
Condizioni attuali

Chiaro Chiaro
Pressione 1000 (hPa) - 29.53 (inHg)
Visibilità 6 (miglio) - 9.7 (km)
Aeroporto
Codice-Aeroporto EDDM

Posizione: Munich Airport
Distanza: 73 (km)

Metar:
EDDM 232350Z AUTO 14003KT CAVOK 02/M00 Q1000 NOSIG

Ore: 23-02-2024 23:50 CET